createdAt,value
2023-02-11T00:02:23.624Z,102621.47
2023-02-11T00:04:51.345Z,102658.03
2023-02-11T00:07:19.114Z,102658.09
2023-02-11T00:09:46.809Z,102640.66
2023-02-11T00:12:19.508Z,102647.44
2023-02-11T00:14:47.798Z,102624.00
2023-02-11T00:17:15.852Z,102659.03
2023-02-11T00:19:54.216Z,102653.59
2023-02-11T00:22:21.965Z,102650.75
2023-02-11T00:24:49.776Z,102663.13
2023-02-11T00:27:17.532Z,102649.09
2023-02-11T00:29:46.255Z,102648.25
2023-02-11T00:32:14.216Z,102650.19
2023-02-11T00:34:41.998Z,102672.94
2023-02-11T00:37:10.252Z,102677.22
2023-02-11T00:39:45.576Z,102676.25
2023-02-11T00:42:16.322Z,102670.16
2023-02-11T00:44:46.037Z,102681.50
2023-02-11T00:47:15.700Z,102650.19
2023-02-11T00:49:47.272Z,102662.47
2023-02-11T00:52:15.010Z,102655.28
2023-02-11T00:54:43.694Z,102648.09
2023-02-11T00:57:11.469Z,102640.22
2023-02-11T00:59:39.328Z,102635.91
2023-02-11T01:02:07.106Z,102630.94
2023-02-11T01:04:34.897Z,102609.97
2023-02-11T01:07:02.792Z,102628.28
2023-02-11T01:09:30.885Z,102632.50
2023-02-11T01:11:59.655Z,102615.38
2023-02-11T01:14:27.382Z,102620.66
2023-02-11T01:16:55.128Z,102620.63
2023-02-11T01:19:26.684Z,102633.50
2023-02-11T01:22:02.094Z,102630.38
2023-02-11T01:24:32.206Z,102623.13
2023-02-11T01:27:00.594Z,102614.13
2023-02-11T01:29:28.247Z,102600.22
2023-02-11T01:32:00.025Z,102592.41
2023-02-11T01:34:30.709Z,102622.97
2023-02-11T01:36:59.602Z,102615.00
2023-02-11T01:39:32.587Z,102617.22
2023-02-11T01:42:01.255Z,102609.47
2023-02-11T01:44:40.292Z,102612.31
2023-02-11T01:47:08.170Z,102598.50
2023-02-11T01:49:40.212Z,102596.41
2023-02-11T01:52:20.282Z,102589.44
2023-02-11T01:55:12.770Z,102581.78
2023-02-11T01:57:45.903Z,102585.16
2023-02-11T02:00:27.130Z,102563.47
2023-02-11T02:03:08.103Z,102554.19
2023-02-11T02:06:02.394Z,102547.78
2023-02-11T02:08:35.133Z,102557.44
2023-02-11T02:11:04.020Z,102545.31
2023-02-11T02:13:36.981Z,102552.16
2023-02-11T02:16:15.736Z,102544.50
2023-02-11T02:19:38.061Z,102542.53
2023-02-11T02:22:42.033Z,102538.03
2023-02-11T02:25:58.221Z,102543.16
2023-02-11T02:29:20.025Z,102549.94
2023-02-11T02:32:12.511Z,102546.88
2023-02-11T02:34:48.988Z,102541.19
2023-02-11T02:37:31.408Z,102514.19
2023-02-11T02:40:18.056Z,102532.69
2023-02-11T02:42:47.306Z,102507.41
2023-02-11T02:45:19.506Z,102529.50
2023-02-11T02:47:47.280Z,102511.09
2023-02-11T02:50:40.764Z,71542.97
2023-02-11T02:57:28.695Z,60778.69
2023-02-11T03:04:21.058Z,60778.69
2023-02-11T03:11:08.166Z,60778.69
2023-02-11T03:17:37.530Z,60778.69
2023-02-11T03:24:16.420Z,60778.69
2023-02-11T03:29:27.177Z,102519.53
2023-02-11T03:36:21.098Z,60778.69
2023-02-11T03:43:04.056Z,60778.69
2023-02-11T03:45:31.923Z,102480.03
2023-02-11T03:48:14.776Z,102484.75
2023-02-11T03:50:50.357Z,102490.59
2023-02-11T03:53:20.516Z,102484.59
2023-02-11T03:55:56.117Z,102488.09
2023-02-11T03:58:24.038Z,102484.34
2023-02-11T04:00:52.203Z,102490.72
2023-02-11T04:03:20.054Z,102495.19
2023-02-11T04:05:48.285Z,102495.88
2023-02-11T04:08:18.464Z,102511.88
2023-02-11T04:10:46.390Z,102523.53
2023-02-11T04:13:15.161Z,102513.38
2023-02-11T04:19:10.449Z,60778.69
2023-02-11T04:25:53.454Z,60778.69
2023-02-11T04:32:28.351Z,60778.69
2023-02-11T04:39:16.241Z,60778.69
2023-02-11T04:45:41.317Z,60778.69
2023-02-11T04:52:02.670Z,60778.69
2023-02-11T04:54:32.226Z,102495.22
2023-02-11T04:56:59.952Z,102494.66
2023-02-11T04:59:27.736Z,102483.56
2023-02-11T05:01:55.870Z,102489.91
2023-02-11T05:04:35.492Z,102446.41
2023-02-11T05:07:03.261Z,102483.34
2023-02-11T05:09:35.580Z,102461.13
2023-02-11T05:12:03.526Z,102478.50
2023-02-11T05:14:31.281Z,102457.66
2023-02-11T05:17:08.994Z,102480.03
2023-02-11T05:19:36.700Z,102470.38
2023-02-11T05:22:04.472Z,102464.84
2023-02-11T05:27:24.671Z,102464.84
2023-02-11T05:29:55.872Z,102466.81
2023-02-11T05:32:30.780Z,102459.13
2023-02-11T05:35:01.026Z,102451.72
2023-02-11T05:37:28.963Z,102447.88
2023-02-11T05:39:59.180Z,102442.41
2023-02-11T05:42:26.998Z,102436.84
2023-02-11T05:44:59.793Z,102435.09
2023-02-11T05:47:30.280Z,102437.38
2023-02-11T05:50:02.377Z,102435.09
2023-02-11T05:52:42.219Z,102432.38
2023-02-11T05:55:10.682Z,102403.13
2023-02-11T05:57:45.438Z,102421.16
2023-02-11T06:00:19.427Z,102420.69
2023-02-11T06:02:47.042Z,102447.56
2023-02-11T06:09:55.637Z,60778.69
2023-02-11T06:16:29.672Z,60778.69
2023-02-11T06:23:14.974Z,60778.69
2023-02-11T06:28:36.029Z,102447.56
2023-02-11T06:31:10.029Z,102431.94
2023-02-11T06:33:51.908Z,102422.63
2023-02-11T06:36:22.134Z,102442.34
2023-02-11T06:38:50.085Z,102442.22
2023-02-11T06:41:22.094Z,102444.78
2023-02-11T06:43:57.247Z,102440.41
2023-02-11T06:46:25.119Z,102428.25
2023-02-11T06:48:56.150Z,102423.81
2023-02-11T06:51:28.373Z,102407.69
2023-02-11T06:53:56.252Z,102433.09
2023-02-11T06:56:27.543Z,102421.66
2023-02-11T06:58:58.138Z,102430.22
2023-02-11T07:01:29.189Z,102448.09
2023-02-11T07:04:09.254Z,102433.78
2023-02-11T07:06:40.034Z,102444.06
2023-02-11T07:09:08.293Z,102440.94
2023-02-11T07:11:38.961Z,102419.69
2023-02-11T07:14:10.714Z,102432.09
2023-02-11T07:16:48.109Z,102403.66
2023-02-11T07:19:36.771Z,102351.47
2023-02-11T07:22:16.374Z,102366.41
2023-02-11T07:24:49.229Z,102393.47
2023-02-11T07:27:17.015Z,102383.06
2023-02-11T07:29:48.676Z,102398.47
2023-02-11T07:32:19.806Z,102422.66
2023-02-11T07:34:50.636Z,102357.56
2023-02-11T07:37:18.851Z,102402.56
2023-02-11T07:40:38.712Z,102388.94
2023-02-11T07:43:00.922Z,102378.69
2023-02-11T07:45:50.054Z,102395.31
2023-02-11T07:48:18.613Z,102391.44
2023-02-11T07:50:49.539Z,102399.13
2023-02-11T07:53:17.778Z,102373.91
2023-02-11T07:55:58.509Z,102380.91
2023-02-11T07:58:46.448Z,102384.16
2023-02-11T08:01:38.554Z,102411.69
2023-02-11T08:10:19.138Z,102356.81
2023-02-11T08:13:05.323Z,102365.16
2023-02-11T08:16:26.928Z,102387.84
2023-02-11T08:19:01.992Z,102392.13
2023-02-11T08:22:10.019Z,102412.16
2023-02-11T08:25:07.955Z,102366.91
2023-02-11T08:27:40.057Z,102400.53
2023-02-11T08:30:30.455Z,102423.66
2023-02-11T08:32:59.206Z,102443.03
2023-02-11T08:35:29.372Z,102427.63
2023-02-11T08:38:17.344Z,102445.34
2023-02-11T08:44:49.150Z,60778.69
2023-02-11T09:04:59.613Z,102445.34
2023-02-11T09:07:36.193Z,102401.97
2023-02-11T09:10:07.064Z,102433.59
2023-02-11T09:12:38.491Z,102426.97
2023-02-11T09:19:37.044Z,60778.69
2023-02-11T09:22:19.467Z,102455.22
2023-02-11T09:25:07.188Z,102414.97
2023-02-11T09:27:48.718Z,102445.19
2023-02-11T09:30:20.731Z,102445.50
2023-02-11T09:33:37.603Z,102423.53
2023-02-11T09:36:58.465Z,102451.38
2023-02-11T09:39:23.710Z,102454.22
2023-02-11T09:42:19.450Z,102525.13
2023-02-11T09:45:56.751Z,102494.63
